createdAt,value
2023-03-23T16:01:54.324Z,25.70
2023-03-23T16:06:58.991Z,31.20
2023-03-23T16:12:01.082Z,20.30
2023-03-23T16:17:02.853Z,20.00
2023-03-23T16:22:04.618Z,23.70
2023-03-23T16:27:06.350Z,21.00
2023-03-23T16:32:08.058Z,26.20
2023-03-23T16:37:12.128Z,18.00
2023-03-23T16:42:13.823Z,17.30
2023-03-23T16:47:15.631Z,15.80
2023-03-23T16:52:18.118Z,22.90
2023-03-23T16:57:19.854Z,16.40
2023-03-23T17:02:22.159Z,14.20
2023-03-23T17:07:24.554Z,16.00
2023-03-23T17:12:27.293Z,23.10
2023-03-23T17:17:29.147Z,23.00
2023-03-23T17:22:31.253Z,25.30
2023-03-23T17:27:33.154Z,19.70
2023-03-23T17:32:35.281Z,20.80
2023-03-23T17:37:37.899Z,29.30
2023-03-23T17:42:39.846Z,39.20
2023-03-23T17:47:41.726Z,33.40
2023-03-23T17:52:44.106Z,26.00
2023-03-23T17:57:46.080Z,28.90
2023-03-23T18:02:47.997Z,32.00
2023-03-23T18:07:50.079Z,27.20
2023-03-23T18:12:51.774Z,35.30
2023-03-23T18:17:53.685Z,42.30
2023-03-23T18:22:57.374Z,56.20
2023-03-23T18:28:05.057Z,55.10
2023-03-23T18:33:08.595Z,58.30
2023-03-23T18:38:11.091Z,62.10
2023-03-23T18:43:13.981Z,29.10
2023-03-23T18:48:15.651Z,20.00
2023-03-23T18:53:17.941Z,17.40
2023-03-23T18:58:21.078Z,27.00
2023-03-23T19:03:23.939Z,31.20
2023-03-23T19:08:27.527Z,33.10
2023-03-23T19:18:34.111Z,22.50
2023-03-23T19:23:37.446Z,29.40
2023-03-23T19:33:45.433Z,39.70
2023-03-23T19:38:50.676Z,40.10
2023-03-23T19:43:52.352Z,34.20
2023-03-23T19:48:54.337Z,32.60
2023-03-23T19:53:57.844Z,42.40
2023-03-23T19:59:00.231Z,44.40
2023-03-23T20:04:05.354Z,39.50
2023-03-23T20:14:09.625Z,21.70
2023-03-23T20:19:11.817Z,20.50
2023-03-23T20:24:14.082Z,18.40
2023-03-23T20:29:16.196Z,21.40
2023-03-23T20:34:28.840Z,18.00
2023-03-23T20:39:33.369Z,17.20
2023-03-23T20:44:36.151Z,16.90
2023-03-23T20:49:40.326Z,15.10
2023-03-23T20:54:42.688Z,13.50
2023-03-23T20:59:44.368Z,20.80
2023-03-23T21:04:47.497Z,13.40
2023-03-23T21:09:49.538Z,14.40
2023-03-23T21:14:51.604Z,18.80
2023-03-23T21:19:53.264Z,12.10
2023-03-23T21:24:55.011Z,13.10
2023-03-23T21:29:59.715Z,14.30
2023-03-23T21:35:02.792Z,12.10
2023-03-23T21:40:06.988Z,9.20
2023-03-23T21:45:11.349Z,9.80
2023-03-23T21:50:13.988Z,8.60
2023-03-23T21:55:16.712Z,9.00
2023-03-23T22:00:18.884Z,13.60
2023-03-23T22:05:20.920Z,9.40
2023-03-23T22:10:25.360Z,13.80
2023-03-23T22:15:29.698Z,14.00
2023-03-23T22:20:32.531Z,15.30
2023-03-23T22:25:36.239Z,13.60
2023-03-23T22:30:37.970Z,17.00
2023-03-23T22:35:46.086Z,10.60
2023-03-23T22:41:02.530Z,7.50
2023-03-23T22:46:25.234Z,9.70
2023-03-23T22:51:37.028Z,7.90
2023-03-23T23:01:40.896Z,9.80
2023-03-23T23:06:42.615Z,12.50
2023-03-23T23:11:44.360Z,8.90
2023-03-23T23:16:47.087Z,9.40
2023-03-23T23:21:48.837Z,9.20
2023-03-23T23:26:50.605Z,7.30
2023-03-23T23:31:52.794Z,9.10
2023-03-23T23:36:54.899Z,8.70
2023-03-23T23:41:56.635Z,8.00
2023-03-23T23:46:58.437Z,9.60
2023-03-23T23:52:00.666Z,7.70
2023-03-23T23:57:03.136Z,11.70
